sensor_id;sensor_type;location;lat;lon;timestamp;P1;durP1;ratioP1;P2;durP2;ratioP2
56429;SDS011;42332;52.136;20.666;2022-12-10T00:01:38;75.87;;;26.97;;
56429;SDS011;42332;52.136;20.666;2022-12-10T00:04:04;73.57;;;26.85;;
56429;SDS011;42332;52.136;20.666;2022-12-10T00:06:31;72.53;;;27.98;;
56429;SDS011;42332;52.136;20.666;2022-12-10T00:08:58;78.18;;;26.58;;
56429;SDS011;42332;52.136;20.666;2022-12-10T00:11:24;75.75;;;25.17;;
56429;SDS011;42332;52.136;20.666;2022-12-10T00:13:50;73.95;;;26.58;;
56429;SDS011;42332;52.136;20.666;2022-12-10T00:16:17;59.88;;;22.63;;
56429;SDS011;42332;52.136;20.666;2022-12-10T00:18:43;73.72;;;26.67;;
56429;SDS011;42332;52.136;20.666;2022-12-10T00:21:10;80.00;;;27.17;;
56429;SDS011;42332;52.136;20.666;2022-12-10T00:23:37;56.95;;;25.10;;
56429;SDS011;42332;52.136;20.666;2022-12-10T00:26:03;74.85;;;26.83;;
56429;SDS011;42332;52.136;20.666;2022-12-10T00:28:30;65.30;;;26.17;;
56429;SDS011;42332;52.136;20.666;2022-12-10T00:31:01;67.50;;;26.60;;
56429;SDS011;42332;52.136;20.666;2022-12-10T00:33:29;62.20;;;23.83;;
56429;SDS011;42332;52.136;20.666;2022-12-10T00:35:55;72.75;;;25.88;;
56429;SDS011;42332;52.136;20.666;2022-12-10T00:38:20;69.53;;;26.20;;
56429;SDS011;42332;52.136;20.666;2022-12-10T00:40:46;66.90;;;27.63;;
56429;SDS011;42332;52.136;20.666;2022-12-10T00:43:11;65.70;;;25.10;;
56429;SDS011;42332;52.136;20.666;2022-12-10T00:45:37;71.30;;;26.75;;
56429;SDS011;42332;52.136;20.666;2022-12-10T00:48:02;72.70;;;26.80;;
56429;SDS011;42332;52.136;20.666;2022-12-10T00:50:27;50.95;;;19.58;;
56429;SDS011;42332;52.136;20.666;2022-12-10T00:52:53;69.63;;;25.60;;
56429;SDS011;42332;52.136;20.666;2022-12-10T00:55:18;83.22;;;23.67;;
56429;SDS011;42332;52.136;20.666;2022-12-10T00:57:43;61.88;;;23.52;;
56429;SDS011;42332;52.136;20.666;2022-12-10T01:00:09;48.47;;;20.60;;
56429;SDS011;42332;52.136;20.666;2022-12-10T01:02:35;75.43;;;24.95;;
56429;SDS011;42332;52.136;20.666;2022-12-10T01:05:00;65.05;;;23.92;;
56429;SDS011;42332;52.136;20.666;2022-12-10T01:07:25;72.72;;;25.75;;
56429;SDS011;42332;52.136;20.666;2022-12-10T01:09:51;73.10;;;26.35;;
56429;SDS011;42332;52.136;20.666;2022-12-10T01:12:16;65.15;;;23.55;;
56429;SDS011;42332;52.136;20.666;2022-12-10T01:14:41;81.25;;;26.10;;
56429;SDS011;42332;52.136;20.666;2022-12-10T01:17:07;53.45;;;23.60;;
56429;SDS011;42332;52.136;20.666;2022-12-10T01:19:32;67.13;;;25.73;;
56429;SDS011;42332;52.136;20.666;2022-12-10T01:21:58;84.60;;;26.40;;
56429;SDS011;42332;52.136;20.666;2022-12-10T01:24:24;77.30;;;26.75;;
56429;SDS011;42332;52.136;20.666;2022-12-10T01:26:51;66.43;;;24.73;;
56429;SDS011;42332;52.136;20.666;2022-12-10T01:29:16;74.78;;;27.20;;
56429;SDS011;42332;52.136;20.666;2022-12-10T01:31:42;70.47;;;25.60;;
56429;SDS011;42332;52.136;20.666;2022-12-10T01:34:09;73.10;;;25.10;;
56429;SDS011;42332;52.136;20.666;2022-12-10T01:36:40;71.80;;;25.42;;
56429;SDS011;42332;52.136;20.666;2022-12-10T01:39:08;65.68;;;23.75;;
56429;SDS011;42332;52.136;20.666;2022-12-10T01:41:39;70.13;;;24.92;;
56429;SDS011;42332;52.136;20.666;2022-12-10T01:46:36;56.03;;;21.73;;
56429;SDS011;42332;52.136;20.666;2022-12-10T01:49:04;78.22;;;24.85;;
56429;SDS011;42332;52.136;20.666;2022-12-10T01:51:33;76.97;;;25.88;;
56429;SDS011;42332;52.136;20.666;2022-12-10T01:53:59;69.70;;;24.52;;
56429;SDS011;42332;52.136;20.666;2022-12-10T01:56:25;73.53;;;24.95;;
56429;SDS011;42332;52.136;20.666;2022-12-10T01:58:51;61.05;;;25.60;;
56429;SDS011;42332;52.136;20.666;2022-12-10T02:14:34;67.63;;;24.70;;
56429;SDS011;42332;52.136;20.666;2022-12-10T02:17:13;71.15;;;25.27;;
56429;SDS011;42332;52.136;20.666;2022-12-10T02:19:49;69.38;;;25.63;;
56429;SDS011;42332;52.136;20.666;2022-12-10T02:22:26;52.35;;;22.58;;
56429;SDS011;42332;52.136;20.666;2022-12-10T02:24:54;66.03;;;25.17;;
56429;SDS011;42332;52.136;20.666;2022-12-10T02:30:11;63.20;;;23.83;;
56429;SDS011;42332;52.136;20.666;2022-12-10T02:32:37;71.18;;;25.52;;
56429;SDS011;42332;52.136;20.666;2022-12-10T02:35:06;65.88;;;22.83;;
56429;SDS011;42332;52.136;20.666;2022-12-10T02:37:48;86.82;;;25.33;;
56429;SDS011;42332;52.136;20.666;2022-12-10T02:40:17;69.85;;;24.15;;
56429;SDS011;42332;52.136;20.666;2022-12-10T02:42:45;62.42;;;23.23;;
56429;SDS011;42332;52.136;20.666;2022-12-10T02:45:13;62.50;;;21.85;;
56429;SDS011;42332;52.136;20.666;2022-12-10T02:47:39;92.97;;;26.83;;
56429;SDS011;42332;52.136;20.666;2022-12-10T02:50:04;69.22;;;23.60;;
56429;SDS011;42332;52.136;20.666;2022-12-10T02:52:31;69.70;;;24.75;;
56429;SDS011;42332;52.136;20.666;2022-12-10T02:54:56;71.30;;;25.20;;
56429;SDS011;42332;52.136;20.666;2022-12-10T03:00:11;62.05;;;22.42;;
56429;SDS011;42332;52.136;20.666;2022-12-10T03:08:18;58.17;;;22.27;;
56429;SDS011;42332;52.136;20.666;2022-12-10T03:11:04;69.00;;;21.95;;
56429;SDS011;42332;52.136;20.666;2022-12-10T03:13:36;64.78;;;22.55;;
56429;SDS011;42332;52.136;20.666;2022-12-10T03:16:14;50.50;;;21.27;;
56429;SDS011;42332;52.136;20.666;2022-12-10T03:18:41;60.08;;;24.25;;
56429;SDS011;42332;52.136;20.666;2022-12-10T03:21:08;67.68;;;24.25;;
56429;SDS011;42332;52.136;20.666;2022-12-10T03:23:36;51.80;;;18.88;;
56429;SDS011;42332;52.136;20.666;2022-12-10T03:26:04;53.42;;;20.58;;
56429;SDS011;42332;52.136;20.666;2022-12-10T03:28:34;63.95;;;20.65;;
56429;SDS011;42332;52.136;20.666;2022-12-10T03:31:03;41.97;;;19.90;;
56429;SDS011;42332;52.136;20.666;2022-12-10T03:33:29;72.93;;;22.88;;
56429;SDS011;42332;52.136;20.666;2022-12-10T03:35:55;61.17;;;22.60;;
56429;SDS011;42332;52.136;20.666;2022-12-10T03:38:21;78.90;;;24.50;;
56429;SDS011;42332;52.136;20.666;2022-12-10T03:40:47;57.35;;;21.95;;
56429;SDS011;42332;52.136;20.666;2022-12-10T03:43:13;63.08;;;22.63;;
56429;SDS011;42332;52.136;20.666;2022-12-10T03:45:39;64.25;;;25.35;;
56429;SDS011;42332;52.136;20.666;2022-12-10T03:48:05;66.40;;;25.83;;
56429;SDS011;42332;52.136;20.666;2022-12-10T03:50:30;67.97;;;22.65;;
56429;SDS011;42332;52.136;20.666;2022-12-10T03:52:55;74.68;;;24.17;;
56429;SDS011;42332;52.136;20.666;2022-12-10T03:55:21;81.05;;;29.45;;
56429;SDS011;42332;52.136;20.666;2022-12-10T03:57:46;66.03;;;21.33;;
56429;SDS011;42332;52.136;20.666;2022-12-10T04:00:13;45.95;;;19.23;;
56429;SDS011;42332;52.136;20.666;2022-12-10T04:02:38;54.50;;;18.10;;
56429;SDS011;42332;52.136;20.666;2022-12-10T04:05:04;56.72;;;21.05;;
56429;SDS011;42332;52.136;20.666;2022-12-10T04:07:31;60.40;;;20.67;;
56429;SDS011;42332;52.136;20.666;2022-12-10T04:09:56;62.38;;;24.98;;
56429;SDS011;42332;52.136;20.666;2022-12-10T04:12:22;57.58;;;21.20;;
56429;SDS011;42332;52.136;20.666;2022-12-10T04:14:47;80.47;;;24.55;;
56429;SDS011;42332;52.136;20.666;2022-12-10T04:17:32;44.58;;;19.23;;
56429;SDS011;42332;52.136;20.666;2022-12-10T04:19:58;48.03;;;19.65;;
56429;SDS011;42332;52.136;20.666;2022-12-10T04:22:23;51.25;;;20.90;;
56429;SDS011;42332;52.136;20.666;2022-12-10T04:25:08;50.03;;;17.23;;
56429;SDS011;42332;52.136;20.666;2022-12-10T04:27:54;47.75;;;18.92;;
56429;SDS011;42332;52.136;20.666;2022-12-10T04:30:19;43.83;;;18.23;;
56429;SDS011;42332;52.136;20.666;2022-12-10T04:32:45;62.25;;;20.17;;
56429;SDS011;42332;52.136;20.666;2022-12-10T04:35:10;62.85;;;16.75;;
56429;SDS011;42332;52.136;20.666;2022-12-10T04:37:36;48.78;;;18.27;;
56429;SDS011;42332;52.136;20.666;2022-12-10T04:40:02;49.60;;;18.48;;
56429;SDS011;42332;52.136;20.666;2022-12-10T04:42:27;51.03;;;20.90;;
56429;SDS011;42332;52.136;20.666;2022-12-10T04:44:53;48.47;;;17.63;;
56429;SDS011;42332;52.136;20.666;2022-12-10T04:47:18;51.03;;;18.20;;
56429;SDS011;42332;52.136;20.666;2022-12-10T04:49:44;57.45;;;19.20;;
56429;SDS011;42332;52.136;20.666;2022-12-10T04:52:10;57.78;;;19.77;;
56429;SDS011;42332;52.136;20.666;2022-12-10T04:54:37;51.53;;;18.15;;
56429;SDS011;42332;52.136;20.666;2022-12-10T04:57:02;43.33;;;18.52;;
56429;SDS011;42332;52.136;20.666;2022-12-10T04:59:27;64.10;;;21.33;;
56429;SDS011;42332;52.136;20.666;2022-12-10T05:01:53;55.85;;;18.70;;
56429;SDS011;42332;52.136;20.666;2022-12-10T05:04:18;48.40;;;18.27;;
56429;SDS011;42332;52.136;20.666;2022-12-10T05:06:47;57.30;;;20.20;;
56429;SDS011;42332;52.136;20.666;2022-12-10T05:09:13;48.72;;;16.85;;
56429;SDS011;42332;52.136;20.666;2022-12-10T05:11:39;55.85;;;18.88;;
56429;SDS011;42332;52.136;20.666;2022-12-10T05:14:04;57.10;;;18.60;;
56429;SDS011;42332;52.136;20.666;2022-12-10T05:16:30;56.42;;;16.08;;
56429;SDS011;42332;52.136;20.666;2022-12-10T05:18:57;44.15;;;16.80;;
56429;SDS011;42332;52.136;20.666;2022-12-10T05:21:23;42.72;;;17.63;;
56429;SDS011;42332;52.136;20.666;2022-12-10T05:23:50;52.95;;;18.77;;
56429;SDS011;42332;52.136;20.666;2022-12-10T05:28:43;48.20;;;18.63;;
56429;SDS011;42332;52.136;20.666;2022-12-10T05:31:13;55.75;;;19.02;;
56429;SDS011;42332;52.136;20.666;2022-12-10T05:33:43;35.75;;;14.40;;
56429;SDS011;42332;52.136;20.666;2022-12-10T05:36:09;58.92;;;19.90;;
56429;SDS011;42332;52.136;20.666;2022-12-10T05:38:36;42.42;;;16.00;;
56429;SDS011;42332;52.136;20.666;2022-12-10T05:41:03;62.28;;;20.83;;
56429;SDS011;42332;52.136;20.666;2022-12-10T05:43:32;62.63;;;20.95;;
56429;SDS011;42332;52.136;20.666;2022-12-10T05:45:59;27.83;;;13.80;;
56429;SDS011;42332;52.136;20.666;2022-12-10T05:48:25;47.75;;;16.92;;
56429;SDS011;42332;52.136;20.666;2022-12-10T05:50:50;67.78;;;19.35;;
56429;SDS011;42332;52.136;20.666;2022-12-10T05:53:16;68.43;;;17.23;;
56429;SDS011;42332;52.136;20.666;2022-12-10T05:55:43;62.63;;;17.77;;
56429;SDS011;42332;52.136;20.666;2022-12-10T05:58:08;54.45;;;19.75;;
56429;SDS011;42332;52.136;20.666;2022-12-10T06:00:34;49.75;;;17.92;;
56429;SDS011;42332;52.136;20.666;2022-12-10T06:02:59;69.35;;;20.98;;
56429;SDS011;42332;52.136;20.666;2022-12-10T06:05:25;53.70;;;17.95;;
56429;SDS011;42332;52.136;20.666;2022-12-10T06:07:50;66.85;;;18.80;;
56429;SDS011;42332;52.136;20.666;2022-12-10T06:10:15;61.90;;;22.20;;
56429;SDS011;42332;52.136;20.666;2022-12-10T06:12:41;50.53;;;19.38;;
56429;SDS011;42332;52.136;20.666;2022-12-10T06:15:06;67.20;;;19.02;;
56429;SDS011;42332;52.136;20.666;2022-12-10T06:17:32;51.42;;;18.38;;
56429;SDS011;42332;52.136;20.666;2022-12-10T06:19:57;66.95;;;20.92;;
56429;SDS011;42332;52.136;20.666;2022-12-10T06:22:23;69.97;;;20.90;;
56429;SDS011;42332;52.136;20.666;2022-12-10T06:24:48;72.22;;;20.75;;
56429;SDS011;42332;52.136;20.666;2022-12-10T06:27:13;54.15;;;18.92;;
56429;SDS011;42332;52.136;20.666;2022-12-10T06:29:39;60.65;;;17.55;;
56429;SDS011;42332;52.136;20.666;2022-12-10T06:32:05;71.68;;;20.45;;
56429;SDS011;42332;52.136;20.666;2022-12-10T06:34:30;58.88;;;16.98;;
56429;SDS011;42332;52.136;20.666;2022-12-10T06:36:55;74.00;;;21.65;;
56429;SDS011;42332;52.136;20.666;2022-12-10T06:39:21;41.85;;;15.73;;
56429;SDS011;42332;52.136;20.666;2022-12-10T06:41:46;53.92;;;17.75;;
56429;SDS011;42332;52.136;20.666;2022-12-10T06:44:12;57.92;;;19.38;;
56429;SDS011;42332;52.136;20.666;2022-12-10T06:46:38;52.97;;;17.10;;
56429;SDS011;42332;52.136;20.666;2022-12-10T06:49:04;34.03;;;13.80;;
56429;SDS011;42332;52.136;20.666;2022-12-10T06:51:30;52.15;;;19.10;;
56429;SDS011;42332;52.136;20.666;2022-12-10T06:53:56;23.83;;;12.43;;
56429;SDS011;42332;52.136;20.666;2022-12-10T06:56:21;51.97;;;18.60;;
56429;SDS011;42332;52.136;20.666;2022-12-10T06:58:47;51.95;;;17.80;;
56429;SDS011;42332;52.136;20.666;2022-12-10T07:01:13;66.40;;;18.58;;
56429;SDS011;42332;52.136;20.666;2022-12-10T07:03:39;57.03;;;19.25;;
56429;SDS011;42332;52.136;20.666;2022-12-10T07:06:05;44.75;;;18.33;;
56429;SDS011;42332;52.136;20.666;2022-12-10T07:08:31;40.60;;;14.65;;
56429;SDS011;42332;52.136;20.666;2022-12-10T07:10:57;47.28;;;17.83;;
56429;SDS011;42332;52.136;20.666;2022-12-10T07:13:23;50.55;;;15.38;;
56429;SDS011;42332;52.136;20.666;2022-12-10T07:15:48;44.35;;;16.27;;
56429;SDS011;42332;52.136;20.666;2022-12-10T07:18:13;62.00;;;18.70;;
56429;SDS011;42332;52.136;20.666;2022-12-10T07:20:39;44.80;;;17.17;;
56429;SDS011;42332;52.136;20.666;2022-12-10T07:23:04;44.17;;;15.93;;
56429;SDS011;42332;52.136;20.666;2022-12-10T07:25:29;36.53;;;15.32;;
56429;SDS011;42332;52.136;20.666;2022-12-10T07:27:55;43.50;;;16.48;;
56429;SDS011;42332;52.136;20.666;2022-12-10T07:30:20;39.13;;;14.30;;
56429;SDS011;42332;52.136;20.666;2022-12-10T07:32:46;52.95;;;17.77;;
56429;SDS011;42332;52.136;20.666;2022-12-10T07:35:11;37.95;;;11.25;;
56429;SDS011;42332;52.136;20.666;2022-12-10T07:37:36;49.72;;;15.63;;
56429;SDS011;42332;52.136;20.666;2022-12-10T07:40:02;28.95;;;13.48;;
56429;SDS011;42332;52.136;20.666;2022-12-10T07:42:27;40.50;;;16.02;;
56429;SDS011;42332;52.136;20.666;2022-12-10T07:44:53;39.45;;;13.98;;
56429;SDS011;42332;52.136;20.666;2022-12-10T07:47:18;52.65;;;14.90;;
56429;SDS011;42332;52.136;20.666;2022-12-10T07:49:44;45.83;;;15.63;;
56429;SDS011;42332;52.136;20.666;2022-12-10T07:52:10;42.75;;;16.15;;
56429;SDS011;42332;52.136;20.666;2022-12-10T07:54:35;51.25;;;17.13;;
56429;SDS011;42332;52.136;20.666;2022-12-10T07:57:00;45.13;;;16.05;;
56429;SDS011;42332;52.136;20.666;2022-12-10T07:59:26;45.47;;;15.20;;
56429;SDS011;42332;52.136;20.666;2022-12-10T08:01:51;55.45;;;14.70;;
56429;SDS011;42332;52.136;20.666;2022-12-10T08:04:17;46.42;;;16.10;;
56429;SDS011;42332;52.136;20.666;2022-12-10T08:06:42;51.30;;;15.98;;
56429;SDS011;42332;52.136;20.666;2022-12-10T08:09:09;42.70;;;12.80;;
56429;SDS011;42332;52.136;20.666;2022-12-10T08:11:34;38.55;;;13.52;;
56429;SDS011;42332;52.136;20.666;2022-12-10T08:14:00;47.67;;;15.30;;
56429;SDS011;42332;52.136;20.666;2022-12-10T08:16:27;65.15;;;21.15;;
56429;SDS011;42332;52.136;20.666;2022-12-10T08:18:54;56.45;;;17.23;;
56429;SDS011;42332;52.136;20.666;2022-12-10T08:21:21;64.53;;;17.30;;
56429;SDS011;42332;52.136;20.666;2022-12-10T08:23:48;48.97;;;16.55;;
56429;SDS011;42332;52.136;20.666;2022-12-10T08:26:17;41.80;;;13.48;;
56429;SDS011;42332;52.136;20.666;2022-12-10T08:28:45;51.53;;;15.85;;
56429;SDS011;42332;52.136;20.666;2022-12-10T08:31:11;46.50;;;18.10;;
56429;SDS011;42332;52.136;20.666;2022-12-10T08:33:37;32.08;;;13.00;;
56429;SDS011;42332;52.136;20.666;2022-12-10T08:36:03;39.78;;;12.52;;
56429;SDS011;42332;52.136;20.666;2022-12-10T08:38:30;32.90;;;13.55;;
56429;SDS011;42332;52.136;20.666;2022-12-10T08:40:55;53.08;;;17.58;;
56429;SDS011;42332;52.136;20.666;2022-12-10T08:43:21;52.03;;;18.27;;
56429;SDS011;42332;52.136;20.666;2022-12-10T08:45:46;56.95;;;15.85;;
56429;SDS011;42332;52.136;20.666;2022-12-10T08:48:11;42.33;;;13.75;;
56429;SDS011;42332;52.136;20.666;2022-12-10T08:50:37;33.20;;;14.60;;
56429;SDS011;42332;52.136;20.666;2022-12-10T08:53:03;37.42;;;13.98;;
56429;SDS011;42332;52.136;20.666;2022-12-10T08:55:28;53.35;;;17.20;;
56429;SDS011;42332;52.136;20.666;2022-12-10T08:57:55;55.13;;;15.35;;
56429;SDS011;42332;52.136;20.666;2022-12-10T09:00:21;51.90;;;17.52;;
56429;SDS011;42332;52.136;20.666;2022-12-10T09:02:46;39.15;;;14.40;;
56429;SDS011;42332;52.136;20.666;2022-12-10T09:05:11;48.65;;;16.15;;
56429;SDS011;42332;52.136;20.666;2022-12-10T09:07:37;44.42;;;15.65;;
56429;SDS011;42332;52.136;20.666;2022-12-10T09:10:03;39.42;;;14.60;;
56429;SDS011;42332;52.136;20.666;2022-12-10T09:12:29;42.85;;;14.57;;
56429;SDS011;42332;52.136;20.666;2022-12-10T09:14:54;44.42;;;13.60;;
56429;SDS011;42332;52.136;20.666;2022-12-10T09:17:20;36.47;;;13.45;;
56429;SDS011;42332;52.136;20.666;2022-12-10T09:19:46;35.72;;;12.48;;
56429;SDS011;42332;52.136;20.666;2022-12-10T09:22:11;36.22;;;12.82;;
56429;SDS011;42332;52.136;20.666;2022-12-10T09:24:36;32.92;;;12.70;;
56429;SDS011;42332;52.136;20.666;2022-12-10T09:27:02;34.45;;;11.80;;
56429;SDS011;42332;52.136;20.666;2022-12-10T09:29:27;31.25;;;12.18;;
56429;SDS011;42332;52.136;20.666;2022-12-10T09:31:53;28.73;;;10.93;;
56429;SDS011;42332;52.136;20.666;2022-12-10T09:34:18;40.60;;;14.60;;
56429;SDS011;42332;52.136;20.666;2022-12-10T09:36:44;41.22;;;13.50;;
56429;SDS011;42332;52.136;20.666;2022-12-10T09:39:10;42.28;;;13.80;;
56429;SDS011;42332;52.136;20.666;2022-12-10T09:41:43;37.38;;;13.65;;
56429;SDS011;42332;52.136;20.666;2022-12-10T09:46:59;34.97;;;12.85;;
56429;SDS011;42332;52.136;20.666;2022-12-10T09:52:18;39.55;;;14.18;;
56429;SDS011;42332;52.136;20.666;2022-12-10T09:54:49;29.52;;;11.40;;
56429;SDS011;42332;52.136;20.666;2022-12-10T09:57:28;32.22;;;9.98;;
56429;SDS011;42332;52.136;20.666;2022-12-10T09:59:55;32.92;;;10.55;;
56429;SDS011;42332;52.136;20.666;2022-12-10T10:04:51;36.75;;;11.18;;
56429;SDS011;42332;52.136;20.666;2022-12-10T10:07:23;41.22;;;13.80;;
56429;SDS011;42332;52.136;20.666;2022-12-10T10:09:51;35.35;;;10.90;;
56429;SDS011;42332;52.136;20.666;2022-12-10T10:12:21;33.30;;;12.50;;
56429;SDS011;42332;52.136;20.666;2022-12-10T10:14:46;31.70;;;11.65;;
56429;SDS011;42332;52.136;20.666;2022-12-10T10:17:15;34.70;;;12.77;;
56429;SDS011;42332;52.136;20.666;2022-12-10T10:19:46;30.95;;;11.38;;
56429;SDS011;42332;52.136;20.666;2022-12-10T10:22:12;39.15;;;12.98;;
56429;SDS011;42332;52.136;20.666;2022-12-10T10:24:41;31.08;;;12.45;;
56429;SDS011;42332;52.136;20.666;2022-12-10T10:27:16;35.42;;;11.88;;
56429;SDS011;42332;52.136;20.666;2022-12-10T10:29:47;29.52;;;10.93;;
56429;SDS011;42332;52.136;20.666;2022-12-10T10:32:16;33.55;;;11.75;;
56429;SDS011;42332;52.136;20.666;2022-12-10T10:34:46;26.52;;;10.23;;
56429;SDS011;42332;52.136;20.666;2022-12-10T10:37:21;28.65;;;10.70;;
56429;SDS011;42332;52.136;20.666;2022-12-10T10:39:50;26.65;;;10.55;;
56429;SDS011;42332;52.136;20.666;2022-12-10T10:42:27;32.22;;;11.00;;
56429;SDS011;42332;52.136;20.666;2022-12-10T10:44:53;41.95;;;13.38;;
56429;SDS011;42332;52.136;20.666;2022-12-10T10:47:29;26.20;;;9.57;;
56429;SDS011;42332;52.136;20.666;2022-12-10T10:49:57;34.28;;;11.15;;
56429;SDS011;42332;52.136;20.666;2022-12-10T10:52:23;39.13;;;11.65;;
56429;SDS011;42332;52.136;20.666;2022-12-10T10:54:53;35.80;;;12.15;;
56429;SDS011;42332;52.136;20.666;2022-12-10T10:57:25;26.70;;;9.82;;
56429;SDS011;42332;52.136;20.666;2022-12-10T10:59:54;35.38;;;10.70;;
56429;SDS011;42332;52.136;20.666;2022-12-10T11:02:23;27.55;;;10.75;;
56429;SDS011;42332;52.136;20.666;2022-12-10T11:04:52;41.05;;;13.65;;
56429;SDS011;42332;52.136;20.666;2022-12-10T11:07:40;35.00;;;11.48;;
56429;SDS011;42332;52.136;20.666;2022-12-10T11:10:18;37.10;;;12.55;;
56429;SDS011;42332;52.136;20.666;2022-12-10T11:12:55;38.17;;;13.18;;
56429;SDS011;42332;52.136;20.666;2022-12-10T11:15:53;32.35;;;12.73;;
56429;SDS011;42332;52.136;20.666;2022-12-10T11:21:00;34.83;;;12.75;;
56429;SDS011;42332;52.136;20.666;2022-12-10T11:23:28;33.72;;;11.63;;
56429;SDS011;42332;52.136;20.666;2022-12-10T11:34:09;49.90;;;14.65;;
56429;SDS011;42332;52.136;20.666;2022-12-10T11:45:45;42.25;;;13.75;;
56429;SDS011;42332;52.136;20.666;2022-12-10T11:50:58;29.73;;;12.60;;
56429;SDS011;42332;52.136;20.666;2022-12-10T11:56:22;25.80;;;10.20;;
56429;SDS011;42332;52.136;20.666;2022-12-10T12:15:03;33.42;;;11.70;;
56429;SDS011;42332;52.136;20.666;2022-12-10T12:17:38;39.35;;;16.20;;
56429;SDS011;42332;52.136;20.666;2022-12-10T12:22:49;46.35;;;15.38;;
56429;SDS011;42332;52.136;20.666;2022-12-10T12:25:29;51.13;;;16.83;;
56429;SDS011;42332;52.136;20.666;2022-12-10T12:28:14;48.28;;;16.13;;
56429;SDS011;42332;52.136;20.666;2022-12-10T12:30:48;38.42;;;11.93;;
56429;SDS011;42332;52.136;20.666;2022-12-10T12:35:55;46.63;;;14.45;;
56429;SDS011;42332;52.136;20.666;2022-12-10T12:39:10;54.28;;;14.95;;
56429;SDS011;42332;52.136;20.666;2022-12-10T12:41:40;38.53;;;12.48;;
56429;SDS011;42332;52.136;20.666;2022-12-10T12:44:48;36.92;;;15.25;;
56429;SDS011;42332;52.136;20.666;2022-12-10T12:47:32;44.05;;;14.50;;
56429;SDS011;42332;52.136;20.666;2022-12-10T12:50:03;43.80;;;14.35;;
56429;SDS011;42332;52.136;20.666;2022-12-10T12:52:37;39.72;;;13.38;;
56429;SDS011;42332;52.136;20.666;2022-12-10T12:55:52;27.27;;;10.93;;
56429;SDS011;42332;52.136;20.666;2022-12-10T12:58:17;26.27;;;10.60;;
56429;SDS011;42332;52.136;20.666;2022-12-10T13:01:06;35.40;;;12.68;;
56429;SDS011;42332;52.136;20.666;2022-12-10T13:03:41;48.72;;;14.93;;
56429;SDS011;42332;52.136;20.666;2022-12-10T13:11:41;37.55;;;12.73;;
56429;SDS011;42332;52.136;20.666;2022-12-10T13:24:17;31.90;;;11.82;;
56429;SDS011;42332;52.136;20.666;2022-12-10T13:27:03;41.17;;;12.10;;
56429;SDS011;42332;52.136;20.666;2022-12-10T13:34:42;49.47;;;15.48;;
56429;SDS011;42332;52.136;20.666;2022-12-10T13:40:26;39.35;;;13.63;;
56429;SDS011;42332;52.136;20.666;2022-12-10T13:50:25;37.15;;;12.68;;
56429;SDS011;42332;52.136;20.666;2022-12-10T13:55:38;42.53;;;12.63;;
56429;SDS011;42332;52.136;20.666;2022-12-10T13:58:18;34.33;;;13.02;;
56429;SDS011;42332;52.136;20.666;2022-12-10T14:06:16;34.25;;;12.55;;
56429;SDS011;42332;52.136;20.666;2022-12-10T14:08:56;36.80;;;13.00;;
56429;SDS011;42332;52.136;20.666;2022-12-10T14:17:46;34.47;;;13.05;;
56429;SDS011;42332;52.136;20.666;2022-12-10T14:20:00;44.10;;;13.18;;
56429;SDS011;42332;52.136;20.666;2022-12-10T14:22:35;38.05;;;13.48;;
56429;SDS011;42332;52.136;20.666;2022-12-10T14:25:05;43.30;;;13.98;;
56429;SDS011;42332;52.136;20.666;2022-12-10T14:27:34;40.33;;;14.93;;
56429;SDS011;42332;52.136;20.666;2022-12-10T14:30:03;37.25;;;12.98;;
56429;SDS011;42332;52.136;20.666;2022-12-10T14:32:49;43.10;;;17.38;;
56429;SDS011;42332;52.136;20.666;2022-12-10T14:35:16;47.78;;;13.13;;
56429;SDS011;42332;52.136;20.666;2022-12-10T14:37:44;39.55;;;16.13;;
56429;SDS011;42332;52.136;20.666;2022-12-10T14:40:24;43.75;;;15.88;;
56429;SDS011;42332;52.136;20.666;2022-12-10T14:42:52;32.47;;;12.85;;
56429;SDS011;42332;52.136;20.666;2022-12-10T14:45:22;41.08;;;14.55;;
56429;SDS011;42332;52.136;20.666;2022-12-10T14:47:47;42.42;;;15.23;;
56429;SDS011;42332;52.136;20.666;2022-12-10T14:50:14;74.30;;;24.05;;
56429;SDS011;42332;52.136;20.666;2022-12-10T14:52:43;72.72;;;25.20;;
56429;SDS011;42332;52.136;20.666;2022-12-10T14:55:13;49.38;;;19.88;;
56429;SDS011;42332;52.136;20.666;2022-12-10T14:57:41;35.03;;;15.18;;
56429;SDS011;42332;52.136;20.666;2022-12-10T15:00:15;46.88;;;15.82;;
56429;SDS011;42332;52.136;20.666;2022-12-10T15:02:53;38.00;;;15.73;;
56429;SDS011;42332;52.136;20.666;2022-12-10T15:05:22;40.90;;;12.90;;
56429;SDS011;42332;52.136;20.666;2022-12-10T15:08:00;31.67;;;11.55;;
56429;SDS011;42332;52.136;20.666;2022-12-10T15:10:40;30.55;;;11.35;;
56429;SDS011;42332;52.136;20.666;2022-12-10T15:13:14;40.53;;;13.55;;
56429;SDS011;42332;52.136;20.666;2022-12-10T15:15:59;40.63;;;13.15;;
56429;SDS011;42332;52.136;20.666;2022-12-10T15:18:27;37.45;;;14.68;;
56429;SDS011;42332;52.136;20.666;2022-12-10T15:20:54;55.83;;;17.20;;
56429;SDS011;42332;52.136;20.666;2022-12-10T15:23:25;36.75;;;14.55;;
56429;SDS011;42332;52.136;20.666;2022-12-10T15:28:43;59.70;;;18.75;;
56429;SDS011;42332;52.136;20.666;2022-12-10T15:31:12;45.22;;;17.77;;
56429;SDS011;42332;52.136;20.666;2022-12-10T15:36:17;72.95;;;25.58;;
56429;SDS011;42332;52.136;20.666;2022-12-10T15:38:45;66.85;;;25.42;;
56429;SDS011;42332;52.136;20.666;2022-12-10T15:41:32;55.50;;;22.75;;
56429;SDS011;42332;52.136;20.666;2022-12-10T15:46:58;43.65;;;17.40;;
56429;SDS011;42332;52.136;20.666;2022-12-10T15:49:42;54.40;;;18.70;;
56429;SDS011;42332;52.136;20.666;2022-12-10T15:52:14;41.15;;;16.73;;
56429;SDS011;42332;52.136;20.666;2022-12-10T15:54:45;43.83;;;15.45;;
56429;SDS011;42332;52.136;20.666;2022-12-10T15:59:37;40.53;;;16.38;;
56429;SDS011;42332;52.136;20.666;2022-12-10T16:02:03;42.05;;;15.45;;
56429;SDS011;42332;52.136;20.666;2022-12-10T16:04:48;38.72;;;15.70;;
56429;SDS011;42332;52.136;20.666;2022-12-10T16:07:14;39.88;;;14.98;;
56429;SDS011;42332;52.136;20.666;2022-12-10T16:09:41;35.63;;;14.15;;
56429;SDS011;42332;52.136;20.666;2022-12-10T16:12:07;31.52;;;14.15;;
56429;SDS011;42332;52.136;20.666;2022-12-10T16:14:37;31.45;;;13.18;;
56429;SDS011;42332;52.136;20.666;2022-12-10T16:17:03;40.45;;;14.07;;
56429;SDS011;42332;52.136;20.666;2022-12-10T16:19:29;37.55;;;14.32;;
56429;SDS011;42332;52.136;20.666;2022-12-10T16:21:54;32.47;;;14.30;;
56429;SDS011;42332;52.136;20.666;2022-12-10T16:24:19;34.00;;;15.07;;
56429;SDS011;42332;52.136;20.666;2022-12-10T16:26:45;39.20;;;16.58;;
56429;SDS011;42332;52.136;20.666;2022-12-10T16:29:10;37.70;;;15.80;;
56429;SDS011;42332;52.136;20.666;2022-12-10T16:31:36;38.28;;;14.57;;
56429;SDS011;42332;52.136;20.666;2022-12-10T16:34:01;52.70;;;18.98;;
56429;SDS011;42332;52.136;20.666;2022-12-10T16:36:26;52.25;;;21.17;;
56429;SDS011;42332;52.136;20.666;2022-12-10T16:38:52;52.35;;;18.83;;